Pagina principale
METAR-TAF:

METAR-TAF

Aeroporti :

Aeroporto di Trieste-Ronchi dei Legionari

Trieste / Ronchi dei Legionari, Italia

latitudine: 45-49N, longitudine: 013-29E, altezza: 12 m

Osservazione

Il bollettino è stato emesso 23 minuti fa, alle 22:20 UTC
Vento 2 kt da direzioni variabili
Temperature 16°C
Umidità 94%
Pressione 1017 hPa
Visibilità 10 km o più

METAR: LIPQ 172220Z AUTO VRB02KT 9999 OVC110/// 16/15 Q1017

Ora: 00:43 (22:43 UTC)

Previsione

Il bollettino è stato emesso 5 ore e 43 minuti fa, alle 17:00 UTC
Previsione valida dal 17 alle 18 UTC al 18 alle 18 UTC
Vento 7 kt da nord-est
Visibilità 10 km o più
Nubi sparse ad un'altezza di 6000 ft

TAF: LIPQ 171700Z 1718/1818 04007KT 9999 SCT060

Osservazioni e previsioni meteorologiche di più di 4000 aeroporti (messaggi METAR e TAF).

Le stazioni disponibili sono rappresentate dai dischi gialli e rossi sulla carta.

Puntare il mouse per vedere il nome della stazione.

Clicca sopra per visualizzare le osservazioni e previsioni meteorologiche.

Per cambiare la mappa : fare clic sui pulsanti verdi con una croce nera per ingrandire, il pulsante verde con un trattino per diminuire, o sulla freccia verde per le mappe adiacenti.


METAR-TAF: